Time;durP1;ratioP1;P1;durP2;ratioP2;P2;SDS_P1;SDS_P2;PMS_P1;PMS_P2;Temp;Humidity;BMP_temperature;BMP_pressure;BME280_temperature;BME280_humidity;BME280_pressure;Samples;Min_cycle;Max_cycle;Signal;HPM_P1;HPM_P2
2024/01/13 00:00:13;;;;;;;6.93;4.60;;;;;;;16.01;38.01;93930.78;5048379;28;20036;-87
2024/01/13 00:02:39;;;;;;;7.05;4.80;;;;;;;16.03;37.87;93933.75;5031564;28;20037;-87
2024/01/13 00:05:05;;;;;;;6.80;4.10;;;;;;;16.02;37.48;93922.09;5028994;28;20075;-86
2024/01/13 00:07:31;;;;;;;6.05;4.45;;;;;;;16.03;37.93;93917.38;5046978;28;20313;-87
2024/01/13 00:09:56;;;;;;;5.57;4.32;;;;;;;15.99;37.96;93914.16;5035939;28;20845;-86
2024/01/13 00:12:22;;;;;;;6.20;4.25;;;;;;;16.00;37.88;93916.38;5027244;28;20217;-87
2024/01/13 00:14:47;;;;;;;6.40;4.35;;;;;;;15.98;37.90;93918.09;5043637;28;20037;-87
2024/01/13 00:17:13;;;;;;;8.63;4.72;;;;;;;15.99;37.87;93922.31;5024025;28;20032;-88
2024/01/13 00:19:38;;;;;;;6.88;4.32;;;;;;;15.95;38.53;93913.59;5028743;28;20095;-86
2024/01/13 00:22:04;;;;;;;7.88;4.72;;;;;;;15.97;38.12;93905.69;5041451;28;20040;-86
2024/01/13 00:24:30;;;;;;;5.68;4.10;;;;;;;15.97;38.13;93911.91;5033030;28;20090;-86
2024/01/13 00:26:55;;;;;;;7.07;4.43;;;;;;;15.99;37.88;93916.88;5034599;28;20032;-88
2024/01/13 00:29:20;;;;;;;7.03;4.70;;;;;;;16.00;37.77;93907.47;5048612;28;20041;-87
2024/01/13 00:31:46;;;;;;;7.45;4.70;;;;;;;16.01;37.87;93914.41;5034753;28;20066;-88
2024/01/13 00:34:11;;;;;;;6.30;3.85;;;;;;;16.03;37.95;93906.47;5011115;28;20041;-86
2024/01/13 00:36:37;;;;;;;7.20;4.82;;;;;;;15.95;38.15;93899.97;5003613;28;20158;-87
2024/01/13 00:39:02;;;;;;;6.35;4.20;;;;;;;15.96;37.93;93896.78;5020728;28;20044;-88
2024/01/13 00:41:28;;;;;;;7.18;4.03;;;;;;;15.97;37.83;93895.53;5012310;28;20041;-88
2024/01/13 00:43:53;;;;;;;4.97;3.78;;;;;;;16.05;37.98;93906.75;4996924;28;20102;-87
2024/01/13 00:46:19;;;;;;;6.47;4.18;;;;;;;15.94;38.52;93912.84;5019901;28;20044;-87
2024/01/13 00:48:45;;;;;;;8.32;4.65;;;;;;;15.94;37.79;93912.84;5008524;28;20045;-87
2024/01/13 00:51:11;;;;;;;7.25;4.35;;;;;;;15.95;38.05;93917.09;4993665;28;20088;-87
2024/01/13 00:53:36;;;;;;;6.15;4.03;;;;;;;16.00;37.75;93923.81;5014466;28;20053;-86
2024/01/13 00:56:02;;;;;;;7.03;4.70;;;;;;;16.04;38.05;93918.88;5008702;28;20700;-86
2024/01/13 00:58:27;;;;;;;5.82;4.15;;;;;;;16.01;37.71;93911.69;5003187;28;20041;-87
2024/01/13 01:00:53;;;;;;;5.40;3.78;;;;;;;16.00;37.85;93926.56;5008810;28;20049;-86
2024/01/13 01:03:18;;;;;;;5.97;4.20;;;;;;;15.98;38.00;93916.13;5015887;28;20119;-87
2024/01/13 01:05:44;;;;;;;6.55;4.25;;;;;;;16.05;37.62;93906.75;5043508;28;20032;-87
2024/01/13 01:08:09;;;;;;;7.00;4.15;;;;;;;16.04;37.82;93918.88;5053822;28;20052;-87
2024/01/13 01:10:35;;;;;;;5.88;4.50;;;;;;;16.06;37.70;93908.25;5042047;28;20041;-86
2024/01/13 01:13:00;;;;;;;6.28;3.80;;;;;;;16.00;38.01;93912.91;5045990;28;20420;-86
2024/01/13 01:15:26;;;;;;;5.70;3.90;;;;;;;16.00;37.69;93910.19;5048586;28;20041;-86
2024/01/13 01:17:51;;;;;;;6.25;4.05;;;;;;;16.01;37.73;93901.53;5045781;28;20037;-87
2024/01/13 01:20:17;;;;;;;4.90;3.90;;;;;;;16.05;37.63;93902.03;5043030;28;20036;-86
2024/01/13 01:22:42;;;;;;;5.93;4.13;;;;;;;16.00;37.89;93896.56;5042081;28;20117;-87
2024/01/13 01:25:08;;;;;;;6.18;4.60;;;;;;;15.93;37.81;93903.19;5046298;28;20040;-86
2024/01/13 01:27:33;;;;;;;5.75;4.00;;;;;;;16.01;37.59;93911.69;5031706;28;21374;-86
2024/01/13 01:29:58;;;;;;;5.78;4.03;;;;;;;16.00;37.70;93905.50;5050488;28;20040;-87
2024/01/13 01:32:24;;;;;;;5.70;3.85;;;;;;;15.97;37.88;93908.44;5050420;28;20079;-87
2024/01/13 01:34:50;;;;;;;6.55;4.22;;;;;;;15.98;37.65;93899.75;5060226;28;20047;-87
2024/01/13 01:37:15;;;;;;;6.47;4.35;;;;;;;15.94;37.69;93896.50;5056169;28;20048;-87
2024/01/13 01:39:40;;;;;;;7.25;3.90;;;;;;;15.95;37.89;93894.53;5084716;28;20151;-86
2024/01/13 01:42:06;;;;;;;5.05;3.72;;;;;;;16.01;37.70;93890.63;5052872;28;20037;-89
2024/01/13 01:44:31;;;;;;;6.88;3.97;;;;;;;16.00;37.90;93883.66;5047655;28;20037;-86
2024/01/13 01:46:57;;;;;;;5.32;3.42;;;;;;;15.95;38.06;93895.28;5046390;28;20695;-86
2024/01/13 01:49:23;;;;;;;5.82;4.00;;;;;;;15.98;37.72;93883.41;5075069;28;20113;-86
2024/01/13 01:51:48;;;;;;;5.57;3.75;;;;;;;15.96;38.09;93883.13;5041658;28;20087;-87
2024/01/13 01:54:14;;;;;;;5.78;4.05;;;;;;;15.99;37.72;93876.72;5046637;28;20047;-86
2024/01/13 01:56:39;;;;;;;6.85;4.32;;;;;;;16.06;37.72;93870.06;5051985;28;20048;-86
2024/01/13 01:59:05;;;;;;;5.60;3.53;;;;;;;15.96;37.40;93863.31;5043530;28;20433;-86
2024/01/13 02:01:30;;;;;;;6.20;3.80;;;;;;;16.01;37.48;93862.59;5044332;28;20052;-86
2024/01/13 02:03:56;;;;;;;6.55;4.07;;;;;;;16.07;37.31;93855.94;5037138;28;20510;-86
2024/01/13 02:06:21;;;;;;;5.32;3.88;;;;;;;16.02;37.72;93845.72;5058647;28;20063;-87
2024/01/13 02:08:47;;;;;;;5.22;3.63;;;;;;;16.07;37.77;93842.31;5044765;28;20474;-86
2024/01/13 02:11:12;;;;;;;5.88;3.63;;;;;;;16.00;37.88;93839.28;5061191;28;20037;-87
2024/01/13 02:13:39;;;;;;;6.88;4.38;;;;;;;16.05;37.44;93835.84;5062450;28;20037;-86
2024/01/13 02:16:06;;;;;;;5.72;3.80;;;;;;;16.03;37.52;93841.03;5055208;28;20052;-87
2024/01/13 02:18:32;;;;;;;5.40;3.70;;;;;;;16.03;37.85;93836.31;5056379;28;20041;-86
2024/01/13 02:20:57;;;;;;;5.35;3.50;;;;;;;16.01;37.68;93841.53;5065977;28;20036;-87
2024/01/13 02:23:23;;;;;;;5.97;3.80;;;;;;;16.00;37.81;93833.84;5051510;28;20040;-87
2024/01/13 02:25:48;;;;;;;6.03;4.07;;;;;;;15.99;37.96;93824.16;5046725;28;20075;-86
2024/01/13 02:28:16;;;;;;;5.10;3.45;;;;;;;15.99;37.79;93830.38;5038289;28;20044;-87
2024/01/13 02:30:41;;;;;;;4.95;3.38;;;;;;;15.98;37.52;93823.41;5062139;28;20894;-87
2024/01/13 02:33:07;;;;;;;5.38;3.75;;;;;;;15.99;37.60;93833.09;5043674;28;20170;-88
2024/01/13 02:35:32;;;;;;;4.80;3.15;;;;;;;15.97;37.86;93827.38;5045202;28;20076;-87
2024/01/13 02:37:57;;;;;;;5.07;3.67;;;;;;;15.93;37.67;93831.53;5042429;28;20081;-88
2024/01/13 02:40:23;;;;;;;4.32;3.30;;;;;;;15.94;37.64;93833.78;5067421;28;20032;-87
2024/01/13 02:42:48;;;;;;;5.40;3.58;;;;;;;15.98;37.71;93828.88;5039814;28;20043;-88
2024/01/13 02:45:14;;;;;;;4.43;3.55;;;;;;;15.94;37.70;93822.88;5063639;28;20677;-87
2024/01/13 02:47:43;;;;;;;5.05;3.25;;;;;;;15.91;38.05;93810.22;5049164;27;20089;-86
2024/01/13 02:50:08;;;;;;;5.43;3.33;;;;;;;15.96;37.58;93820.44;5069801;27;20039;-87
2024/01/13 02:52:33;;;;;;;5.07;3.25;;;;;;;16.02;37.49;93815.03;5066432;28;20059;-87
2024/01/13 02:54:59;;;;;;;7.15;4.03;;;;;;;15.98;37.54;93809.78;5073356;27;20052;-87
2024/01/13 02:57:26;;;;;;;3.92;2.92;;;;;;;16.03;37.27;93800.88;5052235;28;20036;-86
2024/01/13 02:59:51;;;;;;;6.10;3.58;;;;;;;15.98;37.67;93798.88;5051319;28;20032;-87
2024/01/13 03:02:20;;;;;;;4.85;3.28;;;;;;;16.10;37.42;93805.88;5052221;28;20036;-86
2024/01/13 03:04:45;;;;;;;5.65;3.55;;;;;;;15.99;37.51;93792.19;5050554;28;20042;-87
2024/01/13 03:07:11;;;;;;;3.35;2.53;;;;;;;15.97;37.75;93793.91;5052384;27;20043;-88
2024/01/13 03:09:36;;;;;;;5.07;3.60;;;;;;;16.01;37.60;93794.44;5064991;27;20043;-87
2024/01/13 03:12:02;;;;;;;4.65;3.20;;;;;;;16.00;37.81;93790.22;5064570;27;20063;-86
2024/01/13 03:14:29;;;;;;;4.28;3.10;;;;;;;16.01;37.66;93778.81;5087923;27;20107;-87
2024/01/13 03:16:55;;;;;;;4.80;3.45;;;;;;;16.01;37.47;93773.38;5060259;27;20122;-86
2024/01/13 03:19:20;;;;;;;4.82;3.10;;;;;;;16.00;37.24;93782.78;5092803;28;20047;-87
2024/01/13 03:21:46;;;;;;;4.80;3.05;;;;;;;15.98;37.29;93779.78;5075185;28;20127;-87
2024/01/13 03:24:11;;;;;;;4.90;2.83;;;;;;;15.96;37.89;93776.81;5067763;28;20059;-86
2024/01/13 03:26:37;;;;;;;3.92;3.08;;;;;;;16.07;37.27;93782.31;5079592;28;20035;-88
2024/01/13 03:29:02;;;;;;;5.18;3.35;;;;;;;16.01;37.67;93783.53;5078527;28;20043;-89
2024/01/13 03:31:27;;;;;;;4.10;2.83;;;;;;;16.02;37.58;93777.56;5085314;28;20035;-87
2024/01/13 03:33:53;;;;;;;5.00;2.95;;;;;;;15.98;37.21;93785.25;5067589;28;20472;-87
2024/01/13 03:36:19;;;;;;;5.63;3.20;;;;;;;16.07;37.05;93771.41;5068594;28;20104;-87
2024/01/13 03:38:45;;;;;;;6.35;3.50;;;;;;;15.98;37.32;93762.69;5062962;27;20058;-87
2024/01/13 03:41:13;;;;;;;5.10;3.17;;;;;;;15.92;37.84;93773.53;5087939;28;20067;-87
2024/01/13 03:43:39;;;;;;;5.53;3.10;;;;;;;15.96;37.84;93765.88;5068021;28;20060;-86
2024/01/13 03:46:05;;;;;;;4.80;3.20;;;;;;;15.93;37.98;93766.13;5066369;28;20116;-88
2024/01/13 03:48:30;;;;;;;5.22;3.33;;;;;;;15.95;37.76;93758.94;5057391;28;20067;-86
2024/01/13 03:50:56;;;;;;;4.60;3.00;;;;;;;15.96;37.44;93744.06;5032058;28;20068;-86
2024/01/13 03:53:21;;;;;;;3.83;2.75;;;;;;;15.97;37.45;93745.56;5058146;28;20139;-87
2024/01/13 03:55:47;;;;;;;3.88;2.80;;;;;;;15.95;37.88;93753.50;5044233;28;20037;-86
2024/01/13 03:58:12;;;;;;;5.03;3.17;;;;;;;15.99;37.95;93743.13;5026817;28;20201;-86
2024/01/13 04:00:37;;;;;;;5.47;3.20;;;;;;;15.98;37.52;93733.44;5049780;28;20202;-87
2024/01/13 04:03:03;;;;;;;4.00;2.83;;;;;;;16.00;37.36;93736.44;5040702;28;20410;-88
2024/01/13 04:05:29;;;;;;;4.03;2.95;;;;;;;16.02;37.66;93738.66;5030327;28;20094;-86
2024/01/13 04:07:54;;;;;;;4.32;2.92;;;;;;;15.96;37.48;93737.88;5031128;28;20036;-88
2024/01/13 04:10:20;;;;;;;4.10;2.97;;;;;;;15.96;37.89;93746.81;5029747;28;20041;-86
2024/01/13 04:12:45;;;;;;;4.28;3.13;;;;;;;15.90;37.67;93745.28;5029356;28;20040;-86
2024/01/13 04:15:11;;;;;;;4.43;3.13;;;;;;;15.94;37.58;93732.91;5048496;28;20521;-87
2024/01/13 04:17:37;;;;;;;4.07;2.78;;;;;;;15.95;37.49;93739.84;5029866;28;20059;-88
2024/01/13 04:20:03;;;;;;;6.28;3.50;;;;;;;15.90;37.51;93734.38;5047188;28;20109;-89
2024/01/13 04:22:28;;;;;;;4.10;2.88;;;;;;;15.94;37.92;93740.34;5043245;28;20041;-86
2024/01/13 04:24:54;;;;;;;4.47;2.80;;;;;;;15.98;37.75;93733.44;5077889;28;20090;-87
2024/01/13 04:27:19;;;;;;;4.30;2.63;;;;;;;16.01;37.75;93727.00;5029083;28;20056;-87
2024/01/13 04:29:44;;;;;;;4.07;2.95;;;;;;;16.05;37.44;93737.66;5042165;28;20044;-87
2024/01/13 04:32:10;;;;;;;3.28;2.60;;;;;;;15.98;37.57;93735.41;5037281;28;20085;-87
2024/01/13 04:34:35;;;;;;;5.18;3.20;;;;;;;15.95;37.96;93737.13;5045419;28;20425;-87
2024/01/13 04:37:01;;;;;;;4.57;3.35;;;;;;;15.98;37.35;93729.97;5035973;28;20376;-86
2024/01/13 04:39:27;;;;;;;4.10;3.08;;;;;;;15.95;37.53;93728.22;5059587;28;20044;-87
2024/01/13 04:41:52;;;;;;;4.47;2.80;;;;;;;16.01;37.42;93723.53;5055690;28;20114;-86
2024/01/13 04:44:17;;;;;;;4.70;3.15;;;;;;;15.91;37.91;93720.25;5045627;28;20273;-88
2024/01/13 04:46:43;;;;;;;4.68;3.03;;;;;;;16.03;37.48;93719.06;5056931;28;20393;-87
2024/01/13 04:49:08;;;;;;;4.70;2.70;;;;;;;15.96;37.77;93716.81;5040082;28;20040;-87
2024/01/13 04:51:34;;;;;;;5.25;3.08;;;;;;;15.93;37.71;93717.03;5058230;28;20041;-86
2024/01/13 04:53:59;;;;;;;6.03;3.20;;;;;;;15.94;37.71;93718.53;5048208;28;20404;-86
2024/01/13 04:56:25;;;;;;;4.55;2.55;;;;;;;15.98;37.54;93727.97;5050038;28;20045;-87
2024/01/13 04:58:50;;;;;;;4.38;2.95;;;;;;;15.91;37.75;93733.88;5058688;28;20040;-86
2024/01/13 05:01:16;;;;;;;4.72;3.08;;;;;;;15.93;37.76;93725.97;5056312;28;20033;-87
2024/01/13 05:03:41;;;;;;;3.72;2.58;;;;;;;15.92;37.60;93727.19;5058570;28;20036;-87
2024/01/13 05:06:07;;;;;;;5.03;2.75;;;;;;;15.97;37.79;93729.22;5066625;28;20044;-86
2024/01/13 05:08:32;;;;;;;6.20;3.30;;;;;;;15.97;37.68;93723.00;5081852;28;20122;-86
2024/01/13 05:10:58;;;;;;;4.65;2.55;;;;;;;15.94;37.46;93719.28;5091622;28;20067;-86
2024/01/13 05:13:24;;;;;;;4.82;2.85;;;;;;;16.03;37.80;93710.88;5048010;28;20047;-86
2024/01/13 05:15:49;;;;;;;4.20;2.95;;;;;;;15.98;37.61;93711.63;5047340;28;20063;-87
2024/01/13 05:18:15;;;;;;;4.45;2.72;;;;;;;16.01;37.46;93709.91;5046646;28;20045;-86
2024/01/13 05:20:40;;;;;;;4.18;2.75;;;;;;;15.98;37.91;93703.44;5065850;28;20048;-86
2024/01/13 05:23:07;;;;;;;4.32;3.20;;;;;;;15.98;37.77;93703.44;5052570;28;20033;-86
2024/01/13 05:25:33;;;;;;;4.22;2.85;;;;;;;16.00;37.69;93705.69;5067236;28;20036;-87
2024/01/13 05:27:58;;;;;;;5.50;3.05;;;;;;;15.97;37.43;93703.94;5033959;28;20047;-87
2024/01/13 05:30:26;;;;;;;4.22;2.80;;;;;;;15.92;37.82;93704.63;5054735;28;20044;-86
2024/01/13 05:32:51;;;;;;;3.20;2.45;;;;;;;15.91;37.73;93706.63;5062519;28;20033;-86
2024/01/13 05:35:17;;;;;;;6.35;3.60;;;;;;;15.92;37.75;93710.09;5062664;28;20047;-88
2024/01/13 05:37:42;;;;;;;4.45;3.03;;;;;;;15.90;37.67;93707.09;5067377;28;20056;-87
2024/01/13 05:40:08;;;;;;;3.92;2.40;;;;;;;15.90;37.76;93698.94;5075657;28;20048;-87
2024/01/13 05:42:34;;;;;;;4.57;3.15;;;;;;;15.91;37.72;93697.69;5056220;28;20049;-86
2024/01/13 05:45:01;;;;;;;4.80;2.42;;;;;;;15.84;37.83;93679.81;5038959;28;20040;-87
2024/01/13 05:47:26;;;;;;;4.28;2.95;;;;;;;15.90;37.59;93679.84;5054314;28;20033;-88
2024/01/13 05:49:52;;;;;;;3.70;2.70;;;;;;;15.99;37.18;93674.94;5078676;28;20459;-86
2024/01/13 05:52:18;;;;;;;4.22;2.78;;;;;;;15.90;37.64;93683.31;5072013;28;20071;-87
2024/01/13 05:54:43;;;;;;;4.68;3.08;;;;;;;15.93;37.43;93690.53;5055645;28;20554;-88
2024/01/13 05:57:09;;;;;;;4.45;2.85;;;;;;;15.97;37.30;93693.03;5053386;28;20448;-88
2024/01/13 05:59:34;;;;;;;4.97;3.30;;;;;;;15.99;37.51;93694.03;5072173;28;20122;-86
2024/01/13 06:02:00;;;;;;;3.92;2.67;;;;;;;15.95;37.38;93701.69;5097990;27;20568;-87
2024/01/13 06:04:25;;;;;;;4.38;2.60;;;;;;;15.99;37.60;93696.75;5069100;28;20093;-87
2024/01/13 06:06:51;;;;;;;5.47;2.90;;;;;;;15.97;37.51;93698.47;5075616;27;21766;-87
2024/01/13 06:09:16;;;;;;;4.25;2.72;;;;;;;15.99;37.31;93694.03;5056653;28;20078;-87
2024/01/13 06:11:42;;;;;;;5.22;3.20;;;;;;;15.99;37.43;93688.56;5069977;27;20067;-87
2024/01/13 06:14:07;;;;;;;3.85;2.55;;;;;;;15.96;37.80;93684.09;5051246;28;20143;-87
2024/01/13 06:16:32;;;;;;;4.55;2.75;;;;;;;15.94;37.59;93672.94;5068084;28;20407;-86
2024/01/13 06:18:58;;;;;;;3.67;2.58;;;;;;;15.96;37.39;93675.16;5057251;28;20044;-86
2024/01/13 06:21:23;;;;;;;4.78;2.70;;;;;;;15.94;37.54;93683.09;5053116;28;20036;-87
2024/01/13 06:23:49;;;;;;;3.70;2.65;;;;;;;15.91;37.62;93682.06;5056829;27;20027;-87
2024/01/13 06:26:14;;;;;;;4.55;2.85;;;;;;;15.96;37.29;93681.38;5091281;27;20080;-86
2024/01/13 06:28:40;;;;;;;4.28;2.55;;;;;;;15.92;37.32;93669.94;5079384;27;20047;-87
2024/01/13 06:31:05;;;;;;;3.78;2.42;;;;;;;15.86;37.89;93682.03;5087051;28;20674;-86
2024/01/13 06:33:31;;;;;;;3.88;2.33;;;;;;;15.97;37.31;93691.03;5065336;28;20044;-86
2024/01/13 06:35:57;;;;;;;3.60;2.60;;;;;;;15.89;37.46;93681.81;5072634;27;20728;-87
2024/01/13 06:38:24;;;;;;;4.00;2.75;;;;;;;15.92;37.51;93691.75;5056586;28;20036;-87
2024/01/13 06:40:49;;;;;;;4.22;2.70;;;;;;;15.97;37.79;93688.31;5059934;28;20056;-86
2024/01/13 06:43:14;;;;;;;4.32;2.70;;;;;;;15.98;37.24;93678.91;5056783;28;20051;-87
2024/01/13 06:45:40;;;;;;;4.10;2.65;;;;;;;15.97;37.64;93682.88;5087107;27;20405;-87
2024/01/13 06:48:05;;;;;;;3.50;2.42;;;;;;;16.02;37.48;93689.59;5050547;28;20666;-86
2024/01/13 06:50:32;;;;;;;4.25;2.65;;;;;;;15.95;37.64;93687.31;5052816;28;20116;-89
2024/01/13 06:52:57;;;;;;;4.72;3.25;;;;;;;16.00;37.18;93690.06;5050533;28;20068;-86
2024/01/13 06:55:24;;;;;;;3.55;2.60;;;;;;;15.99;37.60;93693.28;5050591;28;20056;-88
2024/01/13 06:57:50;;;;;;;4.47;2.58;;;;;;;15.97;37.32;93695.75;5058145;28;20055;-87
2024/01/13 07:00:16;;;;;;;4.35;2.47;;;;;;;15.90;37.72;93688.75;5079632;28;20553;-87
2024/01/13 07:02:43;;;;;;;4.22;2.38;;;;;;;15.96;37.45;93692.28;5064610;28;20050;-87
2024/01/13 07:05:10;;;;;;;5.45;2.70;;;;;;;15.96;37.21;93694.25;5066857;28;20057;-87
2024/01/13 07:07:35;;;;;;;3.65;2.50;;;;;;;15.97;37.39;93684.84;5059463;28;20790;-86
2024/01/13 07:10:01;;;;;;;3.65;2.78;;;;;;;16.03;37.23;93677.41;5066550;28;20071;-86
2024/01/13 07:12:26;;;;;;;3.75;2.50;;;;;;;15.98;37.71;93673.44;5074945;28;20820;-87
2024/01/13 07:14:52;;;;;;;4.00;2.80;;;;;;;16.00;37.51;93665.53;5067401;28;20149;-87
2024/01/13 07:17:20;;;;;;;4.00;2.25;;;;;;;16.04;37.27;93665.28;5068045;28;20047;-87
2024/01/13 07:19:45;;;;;;;3.78;2.63;;;;;;;16.02;37.56;93659.59;5065109;28;20067;-88
2024/01/13 07:22:11;;;;;;;4.13;2.45;;;;;;;16.00;37.14;93653.88;5060778;28;20035;-86
2024/01/13 07:24:36;;;;;;;2.85;2.08;;;;;;;16.01;37.39;93664.31;5066387;28;20508;-87
2024/01/13 07:27:03;;;;;;;3.97;2.40;;;;;;;16.01;37.12;93656.13;5070560;28;20276;-87
2024/01/13 07:29:28;;;;;;;3.97;2.50;;;;;;;15.96;37.58;93656.84;5056383;28;20040;-87
2024/01/13 07:31:53;;;;;;;4.63;2.40;;;;;;;15.94;37.65;93659.31;5066640;28;20774;-87
2024/01/13 07:34:19;;;;;;;4.07;2.13;;;;;;;15.90;37.48;93645.16;5062310;28;20064;-88
2024/01/13 07:36:45;;;;;;;3.80;2.30;;;;;;;15.91;37.57;93648.63;5067317;28;20036;-87
2024/01/13 07:39:11;;;;;;;4.03;2.83;;;;;;;15.95;37.64;93649.13;5056232;28;20036;-86
2024/01/13 07:41:37;;;;;;;4.13;2.53;;;;;;;15.98;37.45;93648.91;5056561;28;20051;-87
2024/01/13 07:44:02;;;;;;;4.10;2.97;;;;;;;15.96;37.72;93645.94;5069409;28;20041;-86
2024/01/13 07:46:28;;;;;;;3.63;2.20;;;;;;;16.02;37.32;93635.06;5075538;28;20051;-87
2024/01/13 07:48:53;;;;;;;3.83;2.53;;;;;;;15.95;37.90;93641.72;5068588;28;20391;-87
2024/01/13 07:51:19;;;;;;;3.67;2.53;;;;;;;15.95;37.34;93638.97;5048750;28;20037;-86
2024/01/13 07:53:45;;;;;;;4.30;2.95;;;;;;;15.95;37.45;93635.50;5057442;28;20095;-87
2024/01/13 07:56:11;;;;;;;3.42;2.60;;;;;;;15.96;37.69;93639.72;5032277;28;20041;-85
2024/01/13 07:58:36;;;;;;;4.45;3.03;;;;;;;15.95;37.40;93633.53;5028536;28;20051;-87
2024/01/13 08:01:02;;;;;;;3.92;2.17;;;;;;;15.95;37.33;93635.50;5047250;28;20032;-87
2024/01/13 08:03:28;;;;;;;3.17;2.30;;;;;;;15.98;37.39;93631.81;5036580;28;20045;-88
2024/01/13 08:05:53;;;;;;;2.80;2.15;;;;;;;15.94;37.39;93637.50;5054177;28;20044;-86
2024/01/13 08:08:19;;;;;;;3.03;2.20;;;;;;;15.91;37.68;93643.91;5042220;28;20049;-86
2024/01/13 08:10:44;;;;;;;4.47;2.67;;;;;;;15.96;37.13;93648.66;5039767;28;20131;-87
2024/01/13 08:13:10;;;;;;;2.97;2.42;;;;;;;15.90;37.66;93642.41;5042715;28;20052;-87
2024/01/13 08:15:36;;;;;;;4.03;2.33;;;;;;;15.94;37.43;93637.50;5030796;28;20040;-87
2024/01/13 08:18:01;;;;;;;3.78;2.53;;;;;;;15.96;37.37;93629.56;5043245;28;20046;-86
2024/01/13 08:20:27;;;;;;;3.28;2.22;;;;;;;15.94;37.48;93620.38;5041213;28;20039;-87
2024/01/13 08:22:52;;;;;;;3.17;2.33;;;;;;;15.95;37.37;93625.34;5053642;28;20469;-86
2024/01/13 08:25:18;;;;;;;4.05;2.55;;;;;;;16.01;37.55;93617.94;5040624;28;20079;-86
2024/01/13 08:27:43;;;;;;;2.83;1.95;;;;;;;16.00;37.26;93611.00;5046698;28;20068;-86
2024/01/13 08:30:09;;;;;;;2.88;1.98;;;;;;;15.98;37.24;93613.47;5046240;28;20041;-88
2024/01/13 08:32:34;;;;;;;3.03;2.22;;;;;;;15.97;37.52;93611.97;5044378;28;20580;-86
2024/01/13 08:35:00;;;;;;;4.07;2.70;;;;;;;15.92;37.38;93615.41;5039687;28;20060;-86
2024/01/13 08:37:25;;;;;;;3.33;2.05;;;;;;;15.93;37.20;93610.72;5046024;28;20029;-86
2024/01/13 08:39:51;;;;;;;3.40;2.05;;;;;;;15.92;37.66;93609.22;5046126;28;20036;-87
2024/01/13 08:42:16;;;;;;;3.13;2.42;;;;;;;15.97;37.42;93614.69;5063408;28;20044;-86
2024/01/13 08:44:41;;;;;;;3.92;2.67;;;;;;;15.96;37.31;93607.00;5044489;28;20367;-86
2024/01/13 08:47:09;;;;;;;3.20;2.05;;;;;;;15.99;36.77;93625.13;5053952;28;20586;-87
2024/01/13 08:49:35;;;;;;;4.43;2.55;;;;;;;15.93;37.33;93618.88;5026766;28;20059;-87
2024/01/13 08:52:03;;;;;;;3.88;2.10;;;;;;;16.03;37.26;93617.44;5032386;28;20076;-87
2024/01/13 08:54:28;;;;;;;3.30;2.25;;;;;;;15.93;37.36;93621.63;5055463;28;20123;-87
2024/01/13 08:56:54;;;;;;;3.97;2.55;;;;;;;16.01;37.35;93614.47;5034135;28;20041;-86
2024/01/13 08:59:19;;;;;;;4.65;2.55;;;;;;;15.97;37.13;93622.13;5049455;28;20720;-86
2024/01/13 09:01:45;;;;;;;2.38;1.83;;;;;;;15.93;37.54;93624.34;5042755;28;20049;-87
2024/01/13 09:04:11;;;;;;;3.22;2.22;;;;;;;15.95;37.37;93619.91;5039562;28;20036;-87
2024/01/13 09:06:36;;;;;;;4.00;2.60;;;;;;;15.97;37.45;93616.69;5027456;28;20048;-86
2024/01/13 09:09:02;;;;;;;3.75;2.63;;;;;;;15.98;37.17;93610.75;5045450;28;20099;-85
2024/01/13 09:11:28;;;;;;;4.07;2.70;;;;;;;15.99;37.12;93608.75;5034932;28;20041;-87
2024/01/13 09:13:54;;;;;;;4.18;2.67;;;;;;;15.94;37.26;93598.56;5051950;28;20040;-87
2024/01/13 09:16:19;;;;;;;3.38;2.40;;;;;;;15.96;37.00;93594.13;5070443;28;20044;-86
2024/01/13 09:18:44;;;;;;;3.05;2.17;;;;;;;15.92;37.48;93587.41;5045809;28;20329;-87
2024/01/13 09:21:12;;;;;;;4.18;2.78;;;;;;;15.96;37.18;93605.03;5063746;28;20058;-86
2024/01/13 09:23:38;;;;;;;2.90;2.10;;;;;;;15.90;37.55;93603.50;5028181;28;20631;-86
2024/01/13 09:26:04;;;;;;;4.00;2.38;;;;;;;15.98;37.42;93596.34;5043395;28;20033;-86
2024/01/13 09:28:29;;;;;;;3.03;2.17;;;;;;;15.98;37.21;93588.94;5046244;28;20806;-87
2024/01/13 09:30:55;;;;;;;3.38;2.25;;;;;;;15.99;37.11;93589.69;5055541;28;20558;-86
2024/01/13 09:33:21;;;;;;;3.40;2.25;;;;;;;15.99;37.30;93593.16;5070462;28;20044;-87
2024/01/13 09:35:46;;;;;;;3.55;2.45;;;;;;;15.93;37.25;93607.97;5042599;28;20056;-88
2024/01/13 09:38:12;;;;;;;3.35;2.45;;;;;;;15.93;37.61;93595.09;5037382;28;20140;-87
2024/01/13 09:40:41;;;;;;;4.28;2.63;;;;;;;15.92;37.75;93587.41;5047048;28;20048;-87
2024/01/13 09:43:13;;;;;;;3.53;2.47;;;;;;;16.00;37.13;93593.91;5028589;28;20086;-86
2024/01/13 09:45:38;;;;;;;3.90;2.17;;;;;;;16.01;37.47;93596.13;5054692;28;20812;-86
2024/01/13 09:48:04;;;;;;;3.70;2.42;;;;;;;15.99;37.61;93586.94;5028582;28;20043;-89
2024/01/13 09:50:30;;;;;;;3.53;2.20;;;;;;;16.02;37.19;93575.78;5034976;28;20530;-85
2024/01/13 09:52:55;;;;;;;3.47;2.42;;;;;;;16.08;37.23;93578.53;5053310;28;20041;-87
2024/01/13 09:55:21;;;;;;;4.80;2.85;;;;;;;16.01;37.43;93566.13;5048277;28;20089;-87
2024/01/13 09:57:46;;;;;;;2.80;2.20;;;;;;;15.97;37.38;93567.59;5030479;28;20051;-86
2024/01/13 10:00:13;;;;;;;3.53;2.17;;;;;;;15.97;37.11;93573.81;5019139;28;20053;-87
2024/01/13 10:02:39;;;;;;;3.33;2.47;;;;;;;15.99;37.42;93565.88;5020623;28;20049;-88
2024/01/13 10:05:04;;;;;;;3.15;2.08;;;;;;;16.03;37.25;93554.72;5008658;28;20120;-88
2024/01/13 10:07:30;;;;;;;4.45;2.50;;;;;;;15.97;37.43;93543.06;4999298;28;20705;-87
2024/01/13 10:09:56;;;;;;;3.47;2.20;;;;;;;15.97;37.33;93549.25;5021944;28;20037;-88
2024/01/13 10:12:23;;;;;;;3.40;2.15;;;;;;;16.01;37.54;93547.06;5004112;28;20255;-86
2024/01/13 10:14:48;;;;;;;3.15;2.22;;;;;;;16.04;37.09;93535.13;4983115;28;20224;-87
2024/01/13 10:17:14;;;;;;;3.83;2.20;;;;;;;16.10;36.79;93538.63;5013140;28;20042;-87
2024/01/13 10:19:41;;;;;;;2.95;2.30;;;;;;;16.02;37.46;93531.44;5002087;28;20052;-87
2024/01/13 10:22:07;;;;;;;3.35;2.25;;;;;;;16.05;36.94;93525.72;5006128;28;20038;-87
2024/01/13 10:24:33;;;;;;;3.55;2.65;;;;;;;16.11;36.98;93523.75;5013754;28;20040;-86
2024/01/13 10:26:59;;;;;;;3.58;2.40;;;;;;;16.05;37.32;93535.88;5025481;28;20124;-85
2024/01/13 10:29:24;;;;;;;4.18;2.60;;;;;;;16.08;36.85;93532.91;5025663;28;20040;-86
2024/01/13 10:31:53;;;;;;;3.08;2.10;;;;;;;16.10;37.16;93521.53;5067629;28;20048;-87
2024/01/13 10:34:19;;;;;;;3.20;2.33;;;;;;;16.17;36.82;93520.31;5027827;28;20511;-87
2024/01/13 10:36:44;;;;;;;2.60;2.30;;;;;;;16.18;37.14;93519.06;5044071;28;20051;-86
2024/01/13 10:39:10;;;;;;;3.38;2.38;;;;;;;16.17;37.12;93517.56;5033524;28;20047;-86
2024/01/13 10:41:38;;;;;;;3.55;2.28;;;;;;;16.09;36.91;93498.22;5041405;28;20558;-87
2024/01/13 10:44:12;;;;;;;3.50;2.40;;;;;;;16.09;37.31;93509.88;5059576;28;20040;-87
2024/01/13 10:46:38;;;;;;;2.47;2.03;;;;;;;16.13;37.17;93506.16;5054705;28;20084;-88
2024/01/13 10:49:09;;;;;;;2.70;2.15;;;;;;;16.08;37.29;93518.53;5033087;28;20041;-87
2024/01/13 10:51:42;;;;;;;3.72;2.17;;;;;;;16.05;37.27;93516.78;5026076;28;20040;-87
2024/01/13 10:54:08;;;;;;;3.35;2.30;;;;;;;16.18;36.87;93513.63;5029774;28;20048;-87
2024/01/13 10:56:35;;;;;;;3.40;2.20;;;;;;;16.10;37.43;93505.16;5024835;28;20254;-87
2024/01/13 10:59:01;;;;;;;3.50;2.17;;;;;;;16.14;36.74;93511.13;5034332;28;20136;-87
2024/01/13 11:01:26;;;;;;;4.30;2.10;;;;;;;16.10;37.33;93513.34;5044863;28;20041;-87
2024/01/13 11:03:53;;;;;;;3.60;2.30;;;;;;;16.10;37.26;93496.97;5027862;28;20442;-87
2024/01/13 11:06:18;;;;;;;3.55;2.38;;;;;;;16.17;37.49;93498.47;5029252;28;20064;-87
2024/01/13 11:08:45;;;;;;;4.88;2.10;;;;;;;16.11;37.02;93499.22;5031989;28;20040;-86
2024/01/13 11:11:11;;;;;;;3.33;2.20;;;;;;;16.16;36.97;93489.56;5028756;28;20059;-86
2024/01/13 11:13:42;;;;;;;3.60;2.58;;;;;;;16.10;37.38;93473.19;5055617;28;20043;-87
2024/01/13 11:16:12;;;;;;;4.22;2.83;;;;;;;16.13;37.37;93481.63;5054108;28;20075;-87
2024/01/13 11:18:40;;;;;;;3.57;2.43;;;;;;;16.09;36.67;93479.13;5041176;28;20046;-87
2024/01/13 11:21:07;;;;;;;3.78;2.38;;;;;;;16.12;37.63;93475.41;5045409;28;20036;-86
2024/01/13 11:23:51;;;;;;;3.08;2.03;;;;;;;16.17;36.80;93460.31;5029541;28;20053;-87
2024/01/13 11:26:18;;;;;;;3.38;2.20;;;;;;;16.10;37.06;93464.25;5042260;28;20109;-87